createdAt,value
2022-09-18T00:01:16.268Z,7.05
2022-09-18T00:03:43.341Z,14.95
2022-09-18T00:06:13.614Z,6.72
2022-09-18T00:08:40.589Z,8.73
2022-09-18T00:11:09.138Z,9.90
2022-09-18T00:13:37.840Z,11.15
2022-09-18T00:16:06.319Z,13.50
2022-09-18T00:18:33.475Z,15.32
2022-09-18T00:21:07.878Z,8.25
2022-09-18T00:23:35.147Z,11.80
2022-09-18T00:26:02.223Z,10.60
2022-09-18T00:28:29.151Z,11.13
2022-09-18T00:30:56.210Z,9.73
2022-09-18T00:33:23.041Z,11.48
2022-09-18T00:35:49.762Z,12.05
2022-09-18T00:38:16.442Z,13.35
2022-09-18T00:40:45.745Z,9.50
2022-09-18T00:43:22.864Z,13.80
2022-09-18T00:46:23.652Z,9.52
2022-09-18T00:48:59.349Z,12.23
2022-09-18T00:51:26.361Z,9.18
2022-09-18T00:54:03.964Z,10.85
2022-09-18T00:56:30.745Z,9.32
2022-09-18T00:58:57.512Z,8.98
2022-09-18T01:01:24.319Z,9.63
2022-09-18T01:03:50.966Z,8.98
2022-09-18T01:06:31.515Z,11.15
2022-09-18T01:09:29.775Z,11.57
2022-09-18T01:12:10.552Z,7.25
2022-09-18T01:14:42.521Z,8.77
2022-09-18T01:17:24.916Z,12.00
2022-09-18T01:20:19.218Z,12.52
2022-09-18T01:22:51.752Z,8.00
2022-09-18T01:25:25.337Z,9.75
2022-09-18T01:28:10.191Z,10.68
2022-09-18T01:30:41.544Z,9.82
2022-09-18T01:33:13.124Z,5.20
2022-09-18T01:35:44.188Z,8.57
2022-09-18T01:38:16.413Z,6.50
2022-09-18T01:41:04.358Z,12.73
2022-09-18T01:43:32.040Z,8.82
2022-09-18T01:46:04.972Z,8.70
2022-09-18T01:48:42.494Z,12.32
2022-09-18T01:51:14.596Z,8.68
2022-09-18T01:56:14.116Z,10.98
2022-09-18T01:58:41.332Z,13.48
2022-09-18T02:01:13.153Z,10.10
2022-09-18T02:03:51.195Z,7.13
2022-09-18T02:06:26.450Z,14.63
2022-09-18T02:08:55.752Z,14.13
2022-09-18T02:11:23.777Z,10.80
2022-09-18T02:14:02.494Z,14.85
2022-09-18T02:16:49.696Z,9.32
2022-09-18T02:19:26.365Z,9.90
2022-09-18T02:21:54.654Z,15.15
2022-09-18T02:24:25.519Z,11.55
2022-09-18T02:26:53.398Z,9.35
2022-09-18T02:29:22.157Z,11.57
2022-09-18T02:31:50.528Z,13.27
2022-09-18T02:34:18.827Z,10.18
2022-09-18T02:37:13.534Z,11.63
2022-09-18T02:39:52.534Z,11.38
2022-09-18T02:42:25.127Z,11.02
2022-09-18T02:45:14.343Z,12.20
2022-09-18T02:48:05.206Z,11.80
2022-09-18T02:50:47.500Z,11.98
2022-09-18T02:53:40.337Z,16.08
2022-09-18T02:56:28.920Z,8.43
2022-09-18T02:59:01.030Z,9.00
2022-09-18T03:01:29.883Z,15.40
2022-09-18T03:04:21.269Z,12.93
2022-09-18T03:06:56.694Z,11.10
2022-09-18T03:09:24.504Z,13.10
2022-09-18T03:11:51.226Z,12.23
2022-09-18T03:14:20.105Z,21.42
2022-09-18T03:16:46.914Z,8.38
2022-09-18T03:19:14.846Z,10.40
2022-09-18T03:21:42.891Z,17.67
2022-09-18T03:24:11.569Z,13.13
2022-09-18T03:26:41.232Z,10.98
2022-09-18T03:29:09.150Z,14.63
2022-09-18T03:31:37.859Z,14.30
2022-09-18T03:34:06.710Z,15.60
2022-09-18T03:36:34.053Z,13.35
2022-09-18T03:39:01.357Z,11.85
2022-09-18T03:41:29.541Z,13.40
2022-09-18T03:43:57.263Z,10.25
2022-09-18T03:46:24.378Z,13.38
2022-09-18T03:48:55.035Z,9.73
2022-09-18T03:51:22.824Z,16.23
2022-09-18T03:53:51.137Z,9.07
2022-09-18T03:56:38.520Z,17.15
2022-09-18T03:59:31.170Z,14.98
2022-09-18T04:01:57.881Z,12.48
2022-09-18T04:04:27.629Z,12.25
2022-09-18T04:07:03.295Z,9.73
2022-09-18T04:10:00.552Z,12.52
2022-09-18T04:12:27.373Z,17.08
2022-09-18T04:15:06.523Z,11.60
2022-09-18T04:17:33.264Z,9.65
2022-09-18T04:19:59.908Z,15.70
2022-09-18T04:22:26.657Z,12.63
2022-09-18T04:24:53.446Z,13.73
2022-09-18T04:27:21.794Z,11.45
2022-09-18T04:29:51.533Z,12.95
2022-09-18T04:32:19.438Z,15.15
2022-09-18T04:34:47.056Z,16.95
2022-09-18T04:37:14.197Z,17.50
2022-09-18T04:39:41.109Z,23.25
2022-09-18T04:42:09.304Z,21.85
2022-09-18T04:44:35.909Z,24.33
2022-09-18T04:47:02.688Z,20.65
2022-09-18T04:49:29.390Z,29.10
2022-09-18T04:51:55.985Z,21.88
2022-09-18T04:54:24.449Z,25.42
2022-09-18T04:56:51.526Z,33.08
2022-09-18T04:59:19.278Z,28.88
2022-09-18T05:01:50.146Z,26.42
2022-09-18T05:04:16.961Z,24.55
2022-09-18T05:06:52.728Z,23.75
2022-09-18T05:09:19.725Z,25.02
2022-09-18T05:11:48.767Z,27.65
2022-09-18T05:14:16.766Z,27.05
2022-09-18T05:16:47.679Z,25.05
2022-09-18T05:19:43.825Z,31.48
2022-09-18T05:22:19.962Z,24.58
2022-09-18T05:24:49.737Z,20.50
2022-09-18T05:27:16.841Z,24.48
2022-09-18T05:29:44.261Z,29.17
2022-09-18T05:32:20.281Z,31.42
2022-09-18T05:34:50.055Z,25.88
2022-09-18T05:37:17.672Z,15.10
2022-09-18T05:39:48.374Z,18.30
2022-09-18T05:42:16.081Z,27.33
2022-09-18T05:44:43.741Z,20.48
2022-09-18T05:47:15.782Z,24.65
2022-09-18T05:49:51.668Z,20.80
2022-09-18T05:52:18.333Z,14.75
2022-09-18T05:54:45.555Z,15.38
2022-09-18T05:57:13.058Z,23.52
2022-09-18T05:59:39.888Z,27.02
2022-09-18T06:02:09.470Z,21.10
2022-09-18T06:04:57.881Z,24.55
2022-09-18T06:07:24.446Z,23.23
2022-09-18T06:09:54.228Z,20.38
2022-09-18T06:12:23.263Z,17.67
2022-09-18T06:14:49.923Z,11.43
2022-09-18T06:17:17.635Z,23.08
2022-09-18T06:19:45.620Z,19.92
2022-09-18T06:22:13.529Z,14.88
2022-09-18T06:24:42.363Z,22.10
2022-09-18T06:27:17.597Z,14.90
2022-09-18T06:29:44.774Z,20.50
2022-09-18T06:32:15.206Z,17.20
2022-09-18T06:34:42.522Z,12.73
2022-09-18T06:37:13.573Z,20.30
2022-09-18T06:39:43.671Z,21.40
2022-09-18T06:42:19.121Z,19.90
2022-09-18T06:45:06.636Z,17.08
2022-09-18T06:47:34.349Z,18.33
2022-09-18T06:50:01.047Z,20.90
2022-09-18T06:52:31.832Z,16.88
2022-09-18T06:55:04.754Z,15.45
2022-09-18T06:57:32.521Z,18.58
2022-09-18T06:59:59.250Z,21.08
2022-09-18T07:02:27.545Z,20.13
2022-09-18T07:04:58.276Z,18.25
2022-09-18T07:07:24.993Z,24.25
2022-09-18T07:09:54.341Z,30.08
2022-09-18T07:12:23.656Z,31.40
2022-09-18T07:14:53.878Z,19.10
2022-09-18T07:17:26.065Z,22.65
2022-09-18T07:19:54.362Z,18.63
2022-09-18T07:22:24.612Z,19.48
2022-09-18T07:24:52.268Z,20.30
2022-09-18T07:27:18.985Z,18.33
2022-09-18T07:29:46.936Z,17.52
2022-09-18T07:32:15.627Z,18.35
2022-09-18T07:34:44.927Z,20.42
2022-09-18T07:37:14.431Z,18.95
2022-09-18T07:39:47.176Z,22.95
2022-09-18T07:42:32.706Z,9.68
2022-09-18T07:45:01.424Z,13.32
2022-09-18T07:47:29.845Z,15.88
2022-09-18T07:50:04.718Z,19.75
2022-09-18T07:52:32.322Z,20.80
2022-09-18T07:55:01.353Z,12.10
2022-09-18T07:57:31.751Z,14.20
2022-09-18T08:00:17.126Z,13.27
2022-09-18T08:02:43.887Z,9.48
2022-09-18T08:05:18.115Z,15.65
2022-09-18T08:07:53.341Z,15.55
2022-09-18T08:10:41.967Z,18.15
2022-09-18T08:13:27.103Z,17.73
2022-09-18T08:16:11.337Z,14.45
2022-09-18T08:18:57.059Z,16.45
2022-09-18T08:21:42.481Z,16.90
2022-09-18T08:24:11.961Z,25.30
2022-09-18T08:26:38.694Z,13.07
2022-09-18T08:29:06.690Z,17.98
2022-09-18T08:31:33.756Z,15.00
2022-09-18T08:34:03.337Z,11.82
2022-09-18T08:36:31.155Z,11.48
2022-09-18T08:39:01.663Z,11.17
2022-09-18T08:42:00.516Z,19.45
2022-09-18T08:44:32.360Z,11.93
2022-09-18T08:47:25.473Z,13.98
2022-09-18T08:50:03.305Z,16.48
2022-09-18T08:52:33.242Z,18.60
2022-09-18T08:55:24.776Z,12.23
2022-09-18T08:58:34.299Z,18.63
2022-09-18T09:01:08.302Z,12.98
2022-09-18T09:03:59.492Z,21.88
2022-09-18T09:06:42.618Z,13.13
2022-09-18T09:09:37.410Z,19.65
2022-09-18T09:12:16.565Z,20.58
2022-09-18T09:15:20.816Z,20.20
2022-09-18T09:18:02.524Z,18.95
2022-09-18T09:20:45.545Z,14.98
2022-09-18T09:23:26.633Z,17.58
2022-09-18T09:26:06.410Z,14.88
2022-09-18T09:29:13.143Z,19.23
2022-09-18T09:32:03.672Z,15.13
2022-09-18T09:34:55.820Z,21.92
2022-09-18T09:37:46.620Z,14.75
2022-09-18T09:40:34.588Z,19.95
2022-09-18T09:43:22.988Z,16.00
2022-09-18T09:45:51.785Z,10.23
2022-09-18T09:48:41.538Z,9.27
2022-09-18T09:51:22.328Z,9.88
2022-09-18T09:53:49.959Z,10.90
2022-09-18T09:56:19.099Z,9.00
2022-09-18T09:58:55.674Z,12.65
2022-09-18T10:01:28.833Z,11.25
2022-09-18T10:04:35.195Z,10.25
2022-09-18T10:07:29.636Z,11.48
2022-09-18T10:10:16.417Z,6.28
2022-09-18T10:12:52.807Z,10.63
2022-09-18T10:15:32.642Z,8.70
2022-09-18T10:18:01.327Z,13.25
2022-09-18T10:20:29.865Z,4.63
2022-09-18T10:23:24.859Z,8.77
2022-09-18T10:25:57.025Z,11.32
2022-09-18T10:28:26.020Z,8.40
2022-09-18T10:31:13.572Z,9.48
2022-09-18T10:33:52.741Z,4.88
2022-09-18T10:36:37.847Z,13.88
2022-09-18T10:39:36.349Z,4.43
2022-09-18T10:42:07.290Z,4.88
2022-09-18T10:44:37.646Z,10.00
2022-09-18T10:47:18.342Z,6.60
2022-09-18T10:49:58.449Z,11.77
2022-09-18T10:52:35.610Z,7.68
2022-09-18T10:55:07.545Z,10.30
2022-09-18T10:57:40.448Z,10.50
2022-09-18T11:00:12.360Z,8.75
2022-09-18T11:02:41.591Z,8.43
2022-09-18T11:05:28.517Z,7.22
2022-09-18T11:07:57.906Z,8.43
2022-09-18T11:10:26.608Z,9.25
2022-09-18T11:12:58.890Z,8.73
2022-09-18T11:15:36.169Z,9.27
2022-09-18T11:18:06.213Z,8.32
2022-09-18T11:20:41.928Z,4.47
2022-09-18T11:23:29.279Z,10.23
2022-09-18T11:26:19.999Z,5.20
2022-09-18T11:29:05.983Z,6.57
2022-09-18T11:31:46.158Z,5.60
2022-09-18T11:34:22.841Z,6.38
2022-09-18T11:36:53.496Z,4.80
2022-09-18T11:39:27.403Z,6.20
2022-09-18T11:41:54.583Z,3.08
2022-09-18T11:44:26.832Z,5.53
2022-09-18T11:47:18.781Z,6.63
2022-09-18T11:49:49.377Z,7.80
2022-09-18T11:52:21.665Z,9.18
2022-09-18T11:55:04.043Z,10.30
2022-09-18T11:57:36.145Z,4.78
2022-09-18T12:00:17.403Z,6.00
2022-09-18T12:03:08.287Z,6.43
2022-09-18T12:05:38.433Z,10.63
2022-09-18T12:08:17.188Z,6.20
2022-09-18T12:11:04.518Z,7.22
2022-09-18T12:13:37.506Z,8.55
2022-09-18T12:16:21.296Z,4.75
2022-09-18T12:19:12.142Z,3.08
2022-09-18T12:21:43.491Z,5.10
2022-09-18T12:24:13.806Z,6.03
2022-09-18T12:26:52.090Z,6.18
2022-09-18T12:29:34.479Z,5.30
2022-09-18T12:32:07.918Z,6.10
2022-09-18T12:34:37.107Z,7.63
2022-09-18T12:37:22.079Z,4.07
2022-09-18T12:39:55.106Z,13.98
2022-09-18T12:42:30.104Z,3.00
2022-09-18T12:45:05.414Z,6.70
2022-09-18T12:47:47.709Z,6.93
2022-09-18T12:50:27.958Z,8.13
2022-09-18T12:53:09.855Z,2.13
2022-09-18T12:55:56.141Z,9.18
2022-09-18T12:58:44.016Z,5.10
2022-09-18T13:01:22.402Z,7.18
2022-09-18T13:03:49.809Z,6.78
2022-09-18T13:06:30.125Z,9.57
2022-09-18T13:08:59.674Z,6.78
2022-09-18T13:11:37.942Z,5.18
2022-09-18T13:14:19.476Z,7.72
2022-09-18T13:16:54.878Z,13.30
2022-09-18T13:19:32.702Z,12.55
2022-09-18T13:22:03.473Z,15.35
2022-09-18T13:24:35.117Z,14.25
2022-09-18T13:27:04.096Z,12.38
2022-09-18T13:29:52.165Z,9.77
2022-09-18T13:32:43.393Z,10.57
2022-09-18T13:35:13.097Z,15.90
2022-09-18T13:37:40.722Z,14.05
2022-09-18T13:40:35.391Z,14.90
2022-09-18T13:43:24.129Z,11.95
2022-09-18T13:45:50.873Z,7.72
2022-09-18T13:48:24.828Z,7.68
2022-09-18T13:51:03.300Z,15.13
2022-09-18T13:53:39.101Z,11.25
2022-09-18T13:56:08.552Z,6.45
2022-09-18T13:58:38.231Z,8.15
2022-09-18T14:01:08.321Z,9.15
2022-09-18T14:03:40.757Z,7.85
2022-09-18T14:06:43.811Z,8.93
2022-09-18T14:09:45.377Z,4.55
2022-09-18T14:14:42.760Z,14.73
2022-09-18T14:17:13.763Z,8.85
2022-09-18T14:19:44.174Z,7.82
2022-09-18T14:22:24.239Z,9.70
2022-09-18T14:24:50.602Z,6.43
2022-09-18T14:27:50.656Z,6.43
2022-09-18T14:30:24.166Z,4.72
2022-09-18T14:33:09.592Z,4.35
2022-09-18T14:35:35.951Z,6.70
2022-09-18T14:38:02.768Z,10.05
2022-09-18T14:40:30.704Z,9.18
2022-09-18T14:42:57.322Z,4.13
2022-09-18T14:45:30.750Z,9.98
2022-09-18T14:47:58.673Z,5.38
2022-09-18T14:50:37.453Z,8.45
2022-09-18T14:53:24.599Z,8.25
2022-09-18T14:55:55.695Z,4.95
2022-09-18T14:58:23.531Z,9.85
2022-09-18T15:00:54.494Z,6.63
2022-09-18T15:03:25.927Z,7.72
2022-09-18T15:08:25.918Z,6.72
2022-09-18T15:10:55.690Z,6.03
2022-09-18T15:13:22.316Z,11.65
2022-09-18T15:16:01.012Z,5.78
2022-09-18T15:18:29.235Z,8.18
2022-09-18T15:20:57.828Z,6.18
2022-09-18T15:23:28.959Z,5.60
2022-09-18T15:25:58.712Z,6.05
2022-09-18T15:28:26.508Z,8.65
2022-09-18T15:30:58.026Z,11.43
2022-09-18T15:33:27.243Z,6.43
2022-09-18T15:35:55.327Z,6.30
2022-09-18T15:38:26.034Z,8.00
2022-09-18T15:40:52.890Z,9.75
2022-09-18T15:43:28.434Z,2.97
2022-09-18T15:46:12.395Z,2.65
2022-09-18T15:48:38.936Z,3.97
2022-09-18T15:51:09.594Z,5.30
2022-09-18T15:53:38.761Z,4.55
2022-09-18T15:56:09.100Z,6.97
2022-09-18T15:58:41.210Z,2.00
2022-09-18T16:01:16.019Z,10.48
2022-09-18T16:03:42.810Z,9.60
2022-09-18T16:06:21.526Z,6.20
2022-09-18T16:08:51.248Z,7.75
2022-09-18T16:11:42.359Z,6.20
2022-09-18T16:14:56.165Z,6.50
2022-09-18T16:17:28.402Z,5.53
2022-09-18T16:19:56.913Z,9.48
2022-09-18T16:22:24.880Z,5.20
2022-09-18T16:24:51.578Z,7.25
2022-09-18T16:27:22.009Z,7.07
2022-09-18T16:29:48.835Z,2.47
2022-09-18T16:32:15.576Z,5.45
2022-09-18T16:34:46.513Z,6.25
2022-09-18T16:37:13.502Z,6.15
2022-09-18T16:39:40.504Z,7.15
2022-09-18T16:42:15.722Z,7.03
2022-09-18T16:44:42.397Z,5.63
2022-09-18T16:47:09.865Z,7.10
2022-09-18T16:49:42.741Z,8.25
2022-09-18T16:52:10.583Z,5.60
2022-09-18T16:54:37.305Z,7.30
2022-09-18T16:57:13.685Z,5.88
2022-09-18T16:59:42.206Z,5.13
2022-09-18T17:02:09.567Z,8.13
2022-09-18T17:04:36.354Z,7.78
2022-09-18T17:07:06.507Z,7.07
2022-09-18T17:09:33.428Z,3.35
2022-09-18T17:12:00.217Z,6.38
2022-09-18T17:14:27.215Z,6.63
2022-09-18T17:16:54.611Z,9.88
2022-09-18T17:19:21.636Z,5.05
2022-09-18T17:21:49.373Z,3.53
2022-09-18T17:24:19.966Z,5.15
2022-09-18T17:26:47.526Z,6.32
2022-09-18T17:29:14.383Z,2.20
2022-09-18T17:31:41.293Z,3.25
2022-09-18T17:34:08.109Z,6.55
2022-09-18T17:36:37.653Z,1.98
2022-09-18T17:39:04.739Z,4.50
2022-09-18T17:41:32.449Z,9.07
2022-09-18T17:43:59.535Z,3.20
2022-09-18T17:46:26.739Z,5.65
2022-09-18T17:48:54.463Z,5.00
2022-09-18T17:51:22.363Z,6.80
2022-09-18T17:53:51.184Z,8.05
2022-09-18T17:56:19.866Z,11.25
2022-09-18T17:58:47.066Z,14.20
2022-09-18T18:01:17.196Z,6.45
2022-09-18T18:03:44.148Z,8.35
2022-09-18T18:06:11.534Z,4.85
2022-09-18T18:08:38.589Z,5.05
2022-09-18T18:11:08.295Z,10.68
2022-09-18T18:13:42.927Z,12.52
2022-09-18T18:16:16.650Z,3.40
2022-09-18T18:18:43.527Z,7.70
2022-09-18T18:21:10.789Z,14.27
2022-09-18T18:23:40.635Z,10.10
2022-09-18T18:26:12.207Z,7.85
2022-09-18T18:28:40.145Z,10.90
2022-09-18T18:31:12.445Z,9.88
2022-09-18T18:33:41.094Z,9.35
2022-09-18T18:36:16.244Z,9.18
2022-09-18T18:38:44.809Z,8.63
2022-09-18T18:41:13.682Z,3.33
2022-09-18T18:43:41.405Z,9.73
2022-09-18T18:46:12.755Z,5.07
2022-09-18T18:48:44.021Z,8.55
2022-09-18T18:51:15.658Z,8.68
2022-09-18T18:53:43.344Z,7.13
2022-09-18T18:56:13.077Z,7.82
2022-09-18T18:58:40.266Z,4.78
2022-09-18T19:01:08.885Z,8.77
2022-09-18T19:03:40.140Z,8.75
2022-09-18T19:08:35.631Z,4.10
2022-09-18T19:11:05.050Z,9.70
2022-09-18T19:13:41.637Z,7.15
2022-09-18T19:16:09.138Z,8.10
2022-09-18T19:18:36.308Z,6.65
2022-09-18T19:21:03.196Z,13.63
2022-09-18T19:23:30.102Z,5.13
2022-09-18T19:25:58.511Z,10.85
2022-09-18T19:28:28.089Z,5.22
2022-09-18T19:30:56.111Z,12.57
2022-09-18T19:33:23.421Z,11.82
2022-09-18T19:35:50.671Z,6.75
2022-09-18T19:38:20.445Z,6.30
2022-09-18T19:40:51.510Z,5.13
2022-09-18T19:43:32.748Z,5.57
2022-09-18T19:46:00.075Z,8.98
2022-09-18T19:48:27.825Z,11.90
2022-09-18T19:50:55.479Z,15.90
2022-09-18T19:53:22.871Z,14.23
2022-09-18T19:55:49.682Z,6.88
2022-09-18T19:58:16.832Z,9.60
2022-09-18T20:00:44.576Z,9.10
2022-09-18T20:03:11.797Z,9.30
2022-09-18T20:05:39.634Z,14.60
2022-09-18T20:08:07.292Z,11.05
2022-09-18T20:10:37.981Z,10.48
2022-09-18T20:13:05.561Z,7.53
2022-09-18T20:15:32.161Z,17.63
2022-09-18T20:17:58.776Z,17.83
2022-09-18T20:20:26.129Z,13.15
2022-09-18T20:22:54.149Z,16.85
2022-09-18T20:25:21.126Z,24.88
2022-09-18T20:27:47.832Z,11.55
2022-09-18T20:30:16.117Z,19.00
2022-09-18T20:32:43.029Z,15.95
2022-09-18T20:35:09.962Z,12.13
2022-09-18T20:37:36.625Z,10.65
2022-09-18T20:40:05.583Z,12.57
2022-09-18T20:42:34.433Z,12.52
2022-09-18T20:45:05.020Z,16.42
2022-09-18T20:47:34.942Z,10.23
2022-09-18T20:50:06.783Z,13.25
2022-09-18T20:52:37.361Z,13.38
2022-09-18T20:55:16.335Z,18.42
2022-09-18T20:57:46.421Z,14.15
2022-09-18T21:00:17.867Z,13.32
2022-09-18T21:02:45.836Z,16.05
2022-09-18T21:05:14.877Z,19.35
2022-09-18T21:07:45.687Z,18.60
2022-09-18T21:10:13.215Z,12.40
2022-09-18T21:12:39.874Z,16.05
2022-09-18T21:15:13.560Z,12.35
2022-09-18T21:17:40.171Z,12.15
2022-09-18T21:20:06.977Z,27.30
2022-09-18T21:22:33.722Z,14.60
2022-09-18T21:25:00.240Z,18.85
2022-09-18T21:27:26.777Z,17.08
2022-09-18T21:29:53.910Z,15.13
2022-09-18T21:32:21.915Z,19.25
2022-09-18T21:34:48.972Z,16.10
2022-09-18T21:37:15.511Z,16.20
2022-09-18T21:39:42.378Z,24.95
2022-09-18T21:42:09.650Z,19.48
2022-09-18T21:44:37.546Z,22.00
2022-09-18T21:47:05.982Z,21.92
2022-09-18T21:49:32.852Z,15.38
2022-09-18T21:52:07.088Z,14.10
2022-09-18T21:54:33.703Z,23.08
2022-09-18T21:57:00.312Z,26.20
2022-09-18T21:59:35.693Z,20.85
2022-09-18T22:02:03.083Z,15.60
2022-09-18T22:04:32.059Z,19.60
2022-09-18T22:06:59.830Z,23.00
2022-09-18T22:09:28.965Z,26.00
2022-09-18T22:12:02.007Z,16.30
2022-09-18T22:14:31.830Z,21.35
2022-09-18T22:16:59.886Z,17.60
2022-09-18T22:19:26.449Z,20.83
2022-09-18T22:21:52.974Z,36.05
2022-09-18T22:24:22.693Z,32.15
2022-09-18T22:26:54.705Z,14.27
2022-09-18T22:29:23.616Z,30.65
2022-09-18T22:31:51.250Z,29.08
2022-09-18T22:34:20.193Z,21.25
2022-09-18T22:36:47.858Z,25.10
2022-09-18T22:39:15.557Z,24.25
2022-09-18T22:41:42.233Z,16.70
2022-09-18T22:44:09.393Z,27.20
2022-09-18T22:46:40.180Z,19.73
2022-09-18T22:49:08.579Z,22.08
2022-09-18T22:51:35.476Z,21.95
2022-09-18T22:54:04.661Z,24.52
2022-09-18T22:56:31.366Z,32.83
2022-09-18T22:58:58.335Z,26.77
2022-09-18T23:01:27.139Z,13.80
2022-09-18T23:03:56.617Z,23.73
2022-09-18T23:06:25.566Z,23.08
2022-09-18T23:08:56.064Z,26.52
2022-09-18T23:11:24.947Z,27.92
2022-09-18T23:14:13.833Z,22.30
2022-09-18T23:16:40.537Z,20.88
2022-09-18T23:19:11.818Z,23.67
2022-09-18T23:24:09.037Z,30.00
2022-09-18T23:26:40.263Z,31.55
2022-09-18T23:29:12.691Z,23.73
2022-09-18T23:31:41.600Z,36.80
2022-09-18T23:34:14.357Z,23.23
2022-09-18T23:36:45.948Z,27.40
2022-09-18T23:39:18.373Z,19.10
2022-09-18T23:41:45.915Z,20.40
2022-09-18T23:44:14.591Z,18.75
2022-09-18T23:46:41.467Z,28.38
2022-09-18T23:49:08.745Z,22.15
2022-09-18T23:51:38.072Z,26.88
2022-09-18T23:54:06.983Z,26.17
2022-09-18T23:56:34.669Z,25.95
2022-09-18T23:59:03.464Z,17.88
